createdAt,value
2022-11-01T00:00:33.250Z,85.23
2022-11-01T00:03:18.194Z,84.35
2022-11-01T00:06:03.621Z,84.64
2022-11-01T00:08:48.746Z,83.96
2022-11-01T00:11:34.371Z,85.13
2022-11-01T00:14:19.824Z,85.27
2022-11-01T00:17:05.471Z,86.09
2022-11-01T00:19:50.585Z,84.64
2022-11-01T00:22:35.758Z,84.70
2022-11-01T00:25:20.558Z,86.30
2022-11-01T00:28:05.711Z,87.01
2022-11-01T00:30:55.505Z,86.96
2022-11-01T00:33:40.752Z,88.29
2022-11-01T00:36:25.948Z,90.55
2022-11-01T00:39:14.988Z,92.39
2022-11-01T00:41:59.886Z,93.53
2022-11-01T00:44:45.111Z,94.61
2022-11-01T00:47:30.133Z,94.45
2022-11-01T00:50:15.507Z,94.98
2022-11-01T00:53:00.557Z,95.67
2022-11-01T00:55:45.886Z,97.56
2022-11-01T00:58:31.380Z,98.29
2022-11-01T01:01:16.673Z,96.59
2022-11-01T01:04:01.657Z,96.41
2022-11-01T01:06:46.690Z,93.77
2022-11-01T01:09:32.023Z,94.25
2022-11-01T01:12:17.117Z,93.06
2022-11-01T01:15:02.739Z,93.21
2022-11-01T01:17:48.173Z,93.84
2022-11-01T01:20:33.227Z,94.32
2022-11-01T01:23:18.345Z,94.92
2022-11-01T01:26:08.147Z,95.48
2022-11-01T01:28:54.012Z,94.66
2022-11-01T01:31:39.298Z,95.73
2022-11-01T01:34:24.062Z,95.21
2022-11-01T01:37:09.879Z,95.84
2022-11-01T01:39:54.947Z,95.08
2022-11-01T01:42:42.445Z,95.34
2022-11-01T01:45:29.704Z,96.65
2022-11-01T01:48:27.209Z,95.97
2022-11-01T01:51:16.291Z,96.15
2022-11-01T01:54:01.230Z,96.09
2022-11-01T01:56:46.692Z,96.32
2022-11-01T01:59:32.661Z,97.16
2022-11-01T02:02:20.253Z,98.42
2022-11-01T02:05:35.301Z,97.91
2022-11-01T02:08:27.585Z,97.31
2022-11-01T02:11:14.717Z,97.43
2022-11-01T02:14:00.517Z,98.29
2022-11-01T02:17:38.172Z,98.81
2022-11-01T02:20:32.075Z,97.72
2022-11-01T02:23:41.630Z,97.60
2022-11-01T02:26:45.264Z,97.95
2022-11-01T02:30:00.643Z,97.89
2022-11-01T02:33:01.993Z,97.52
2022-11-01T02:36:07.915Z,98.05
2022-11-01T02:39:01.075Z,98.07
2022-11-01T02:41:55.914Z,97.94
2022-11-01T02:44:49.791Z,97.78
2022-11-01T02:47:35.569Z,98.22
2022-11-01T02:50:21.238Z,98.94
2022-11-01T02:53:06.992Z,99.03
2022-11-01T02:55:53.417Z,98.75
2022-11-01T02:58:39.170Z,98.43
2022-11-01T03:01:27.790Z,98.48
2022-11-01T03:04:12.560Z,99.11
2022-11-01T03:07:00.990Z,99.31
2022-11-01T03:09:45.941Z,99.58
2022-11-01T03:12:40.789Z,98.98
2022-11-01T03:15:33.734Z,99.36
2022-11-01T03:18:27.196Z,99.87
2022-11-01T03:21:19.154Z,100.00
2022-11-01T03:24:27.483Z,100.00
2022-11-01T03:27:21.625Z,100.00
2022-11-01T03:30:11.317Z,100.00
2022-11-01T03:32:58.021Z,100.00
2022-11-01T03:35:47.506Z,100.00
2022-11-01T03:38:36.293Z,100.00
2022-11-01T03:41:24.217Z,100.00
2022-11-01T03:44:12.682Z,100.00
2022-11-01T03:46:57.430Z,100.00
2022-11-01T03:49:42.549Z,100.00
2022-11-01T03:52:27.851Z,100.00
2022-11-01T03:55:20.186Z,100.00
2022-11-01T03:58:05.266Z,100.00
2022-11-01T04:00:50.796Z,99.75
2022-11-01T04:03:36.310Z,100.00
2022-11-01T04:06:21.500Z,100.00
2022-11-01T04:09:06.589Z,99.80
2022-11-01T04:11:51.473Z,99.38
2022-11-01T04:14:55.449Z,99.28
2022-11-01T04:17:59.305Z,99.23
2022-11-01T04:20:44.467Z,99.24
2022-11-01T04:23:29.738Z,99.52
2022-11-01T04:26:20.683Z,99.33
2022-11-01T04:29:05.537Z,99.20
2022-11-01T04:31:50.681Z,99.25
2022-11-01T04:34:44.688Z,99.57
2022-11-01T04:37:31.409Z,100.00
2022-11-01T04:40:16.668Z,99.70
2022-11-01T04:43:01.601Z,99.18
2022-11-01T04:45:54.583Z,99.81
2022-11-01T04:48:39.953Z,99.35
2022-11-01T04:51:25.033Z,98.90
2022-11-01T04:54:09.822Z,99.51
2022-11-01T04:56:54.914Z,100.00
2022-11-01T04:59:40.044Z,100.00
2022-11-01T05:02:25.038Z,100.00
2022-11-01T05:05:11.342Z,100.00
2022-11-01T05:08:14.780Z,100.00
2022-11-01T05:10:59.709Z,100.00
2022-11-01T05:13:44.953Z,100.00
2022-11-01T05:16:30.117Z,100.00
2022-11-01T05:19:16.026Z,100.00
2022-11-01T05:22:01.082Z,100.00
2022-11-01T05:24:46.286Z,100.00
2022-11-01T05:27:31.450Z,100.00
2022-11-01T05:30:16.553Z,100.00
2022-11-01T05:33:02.562Z,97.97
2022-11-01T05:35:47.603Z,96.79
2022-11-01T05:38:32.734Z,96.97
2022-11-01T05:41:17.586Z,95.13
2022-11-01T05:44:03.288Z,94.63
2022-11-01T05:46:48.313Z,94.68
2022-11-01T05:49:33.382Z,93.29
2022-11-01T05:52:18.234Z,91.12
2022-11-01T05:55:04.064Z,90.81
2022-11-01T05:57:49.222Z,91.07
2022-11-01T06:00:34.583Z,91.05
2022-11-01T06:03:19.706Z,88.53
2022-11-01T06:06:05.206Z,88.79
2022-11-01T06:08:50.135Z,87.72
2022-11-01T06:11:40.566Z,87.24
2022-11-01T06:14:26.802Z,86.13
2022-11-01T06:17:13.313Z,85.75
2022-11-01T06:19:58.578Z,86.16
2022-11-01T06:22:43.807Z,85.77
2022-11-01T06:25:28.673Z,85.45
2022-11-01T06:28:13.546Z,85.79
2022-11-01T06:31:03.242Z,86.29
2022-11-01T06:33:51.119Z,86.46
2022-11-01T06:36:36.082Z,86.60
2022-11-01T06:39:20.923Z,87.50
2022-11-01T06:42:06.273Z,87.79
2022-11-01T06:44:51.111Z,87.56
2022-11-01T06:50:26.374Z,85.53
2022-11-01T06:53:11.592Z,85.02
2022-11-01T06:56:01.482Z,82.73
2022-11-01T06:58:50.108Z,81.38
2022-11-01T07:01:35.444Z,77.68
2022-11-01T07:04:23.989Z,75.34
2022-11-01T07:07:08.755Z,74.51
2022-11-01T07:09:54.022Z,72.82
2022-11-01T07:12:39.155Z,73.26
2022-11-01T07:15:23.932Z,74.91
2022-11-01T07:18:09.333Z,74.01
2022-11-01T07:20:54.188Z,74.30
2022-11-01T07:23:39.392Z,74.58
2022-11-01T07:26:24.213Z,75.41
2022-11-01T07:29:09.544Z,75.11
2022-11-01T07:31:54.496Z,75.21
2022-11-01T07:34:39.712Z,73.40
2022-11-01T07:37:28.991Z,74.23
2022-11-01T07:40:13.977Z,75.47
2022-11-01T07:43:00.418Z,75.28
2022-11-01T07:45:45.494Z,75.36
2022-11-01T07:48:30.451Z,74.80
2022-11-01T07:51:15.601Z,75.70
2022-11-01T07:56:50.332Z,74.88
2022-11-01T07:59:35.433Z,73.51
2022-11-01T08:02:20.626Z,73.76
2022-11-01T08:05:06.314Z,70.78
2022-11-01T08:07:51.197Z,69.70
2022-11-01T08:10:37.297Z,69.25
2022-11-01T08:13:24.241Z,67.88
2022-11-01T08:16:09.215Z,67.25
2022-11-01T08:18:54.414Z,69.34
2022-11-01T08:21:39.492Z,66.67
2022-11-01T08:24:24.297Z,67.75
2022-11-01T08:27:09.454Z,68.03
2022-11-01T08:29:54.637Z,69.27
2022-11-01T08:32:40.053Z,70.06
2022-11-01T08:35:25.091Z,68.72
2022-11-01T08:38:10.293Z,69.17
2022-11-01T08:40:55.681Z,68.84
2022-11-01T08:43:40.904Z,67.81
2022-11-01T08:46:25.769Z,69.48
2022-11-01T08:49:11.842Z,68.72
2022-11-01T08:51:57.008Z,67.73
2022-11-01T08:54:42.002Z,65.69
2022-11-01T08:57:27.213Z,65.58
2022-11-01T09:00:13.677Z,64.82
2022-11-01T09:02:58.576Z,62.28
2022-11-01T09:05:43.813Z,63.49
2022-11-01T09:08:28.957Z,61.93
2022-11-01T09:11:14.365Z,62.76
2022-11-01T09:13:59.145Z,61.84
2022-11-01T09:16:44.244Z,60.31
2022-11-01T09:19:29.418Z,58.74
2022-11-01T09:22:14.288Z,58.31
2022-11-01T09:24:59.492Z,56.02
2022-11-01T09:27:44.626Z,56.71
2022-11-01T09:30:30.322Z,55.44
2022-11-01T09:33:15.029Z,56.94
2022-11-01T09:36:00.534Z,56.88
2022-11-01T09:38:45.297Z,58.44
2022-11-01T09:41:47.180Z,58.23
2022-11-01T09:44:37.284Z,57.37
2022-11-01T09:47:25.772Z,56.53
2022-11-01T09:50:27.663Z,57.32
2022-11-01T09:53:18.838Z,57.65
2022-11-01T09:56:30.298Z,59.50
2022-11-01T09:59:24.700Z,61.34
2022-11-01T10:02:46.025Z,64.51
2022-11-01T10:05:59.835Z,63.91
2022-11-01T10:09:09.292Z,63.76
2022-11-01T10:12:22.730Z,61.96
2022-11-01T10:15:32.612Z,60.36
2022-11-01T10:18:31.290Z,58.65
2022-11-01T10:21:17.031Z,58.46
2022-11-01T10:24:07.127Z,60.23
2022-11-01T10:26:59.539Z,59.84
2022-11-01T10:29:50.156Z,60.78
2022-11-01T10:32:42.875Z,59.03
2022-11-01T10:35:37.303Z,57.63
2022-11-01T10:39:36.994Z,56.39
2022-11-01T10:41:51.141Z,55.69
2022-11-01T10:44:43.224Z,53.27
2022-11-01T10:47:28.961Z,51.39
2022-11-01T10:50:18.307Z,52.29
2022-11-01T10:53:08.018Z,54.61
2022-11-01T10:55:59.597Z,53.26
2022-11-01T10:59:00.466Z,53.91
2022-11-01T11:01:47.677Z,50.70
2022-11-01T11:04:33.043Z,51.26
2022-11-01T11:07:21.685Z,51.51
2022-11-01T11:10:23.847Z,52.48
2022-11-01T11:13:10.461Z,53.89
2022-11-01T11:16:05.225Z,53.89
2022-11-01T11:19:01.335Z,53.38
2022-11-01T11:21:51.490Z,50.29
2022-11-01T11:24:43.690Z,52.48
2022-11-01T11:27:30.667Z,52.32
2022-11-01T11:30:48.259Z,50.73
2022-11-01T11:33:33.420Z,50.94
2022-11-01T11:36:28.383Z,52.56
2022-11-01T11:39:58.781Z,53.00
2022-11-01T11:42:45.801Z,53.54
2022-11-01T11:45:31.225Z,53.50
2022-11-01T11:48:21.787Z,53.31
2022-11-01T11:51:06.926Z,53.58
2022-11-01T11:54:14.745Z,53.59
2022-11-01T11:57:24.777Z,55.45
2022-11-01T12:00:23.415Z,53.75
2022-11-01T12:03:12.758Z,53.03
2022-11-01T12:06:07.013Z,53.94
2022-11-01T12:08:56.848Z,53.81
2022-11-01T12:11:45.987Z,52.81
2022-11-01T12:14:36.458Z,53.67
2022-11-01T12:17:32.693Z,53.53
2022-11-01T12:20:25.408Z,53.66
2022-11-01T12:23:19.148Z,53.78
2022-11-01T12:26:13.877Z,54.49
2022-11-01T12:29:13.196Z,53.91
2022-11-01T12:32:04.680Z,54.39
2022-11-01T12:34:52.099Z,54.84
2022-11-01T12:38:12.884Z,55.01
2022-11-01T12:41:02.366Z,54.48
2022-11-01T12:44:01.230Z,53.93
2022-11-01T12:46:50.350Z,54.32
2022-11-01T12:49:55.623Z,54.32
2022-11-01T12:52:49.819Z,54.47
2022-11-01T12:55:37.538Z,53.88
2022-11-01T12:58:23.213Z,53.62
2022-11-01T13:01:11.211Z,53.39
2022-11-01T13:04:10.948Z,52.69
2022-11-01T13:07:07.777Z,51.78
2022-11-01T13:10:13.781Z,53.07
2022-11-01T13:13:23.661Z,53.79
2022-11-01T13:16:17.834Z,53.57
2022-11-01T13:19:23.309Z,53.75
2022-11-01T13:22:28.032Z,54.51
2022-11-01T13:25:42.024Z,54.00
2022-11-01T13:29:05.714Z,53.81
2022-11-01T13:32:33.921Z,53.36
2022-11-01T13:35:34.134Z,53.52
2022-11-01T13:38:35.117Z,52.82
2022-11-01T13:41:39.098Z,53.78
2022-11-01T13:44:27.967Z,53.27
2022-11-01T13:47:21.655Z,52.73
2022-11-01T13:50:15.401Z,53.85
2022-11-01T13:53:15.346Z,54.00
2022-11-01T13:56:15.387Z,53.24
2022-11-01T13:59:00.861Z,54.60
2022-11-01T14:01:45.769Z,52.22
2022-11-01T14:04:33.813Z,52.40
2022-11-01T14:07:18.630Z,53.38
2022-11-01T14:10:30.480Z,53.58
2022-11-01T14:13:37.177Z,53.40
2022-11-01T14:16:22.585Z,54.10
2022-11-01T14:19:19.127Z,55.12
2022-11-01T14:22:32.233Z,55.06
2022-11-01T14:25:17.183Z,55.35
2022-11-01T14:28:17.107Z,56.32
2022-11-01T14:31:01.999Z,56.46
2022-11-01T14:33:48.405Z,55.82
2022-11-01T14:36:36.352Z,56.35
2022-11-01T14:39:29.367Z,56.87
2022-11-01T14:42:23.059Z,57.50
2022-11-01T14:45:28.113Z,57.55
2022-11-01T14:48:27.970Z,57.65
2022-11-01T14:51:35.434Z,57.64
2022-11-01T14:54:50.177Z,58.21
2022-11-01T14:57:35.460Z,57.54
2022-11-01T15:00:31.890Z,58.91
2022-11-01T15:03:18.135Z,58.57
2022-11-01T15:06:04.641Z,59.40
2022-11-01T15:08:49.630Z,59.83
2022-11-01T15:11:35.044Z,60.16
2022-11-01T15:14:34.647Z,60.11
2022-11-01T15:17:31.276Z,60.58
2022-11-01T15:20:18.024Z,61.38
2022-11-01T15:23:07.687Z,61.96
2022-11-01T15:25:54.336Z,61.32
2022-11-01T15:28:42.913Z,62.38
2022-11-01T15:31:29.032Z,62.83
2022-11-01T15:34:23.293Z,64.14
2022-11-01T15:37:20.850Z,64.69
2022-11-01T15:40:27.560Z,63.38
2022-11-01T15:43:39.470Z,63.69
2022-11-01T15:46:28.990Z,63.64
2022-11-01T15:49:25.718Z,63.46
2022-11-01T15:52:27.367Z,63.90
2022-11-01T15:55:44.023Z,63.73
2022-11-01T15:58:39.575Z,64.67
2022-11-01T16:01:25.609Z,65.11
2022-11-01T16:04:14.782Z,66.67
2022-11-01T16:07:04.433Z,67.12
2022-11-01T16:09:54.886Z,66.98
2022-11-01T16:12:44.664Z,67.71
2022-11-01T16:15:31.584Z,68.13
2022-11-01T16:18:23.787Z,68.31
2022-11-01T16:21:20.619Z,69.42
2022-11-01T16:24:15.534Z,70.46
2022-11-01T16:27:06.092Z,71.40
2022-11-01T16:29:51.346Z,72.29
2022-11-01T16:32:36.790Z,72.09
2022-11-01T16:35:33.558Z,72.33
2022-11-01T16:38:22.953Z,72.29
2022-11-01T16:41:17.310Z,73.11
2022-11-01T16:44:12.615Z,73.41
2022-11-01T16:46:57.671Z,73.47
2022-11-01T16:49:47.414Z,74.30
2022-11-01T16:52:33.765Z,73.70
2022-11-01T16:55:20.471Z,74.35
2022-11-01T16:58:16.222Z,74.15
2022-11-01T17:01:01.353Z,75.26
2022-11-01T17:03:47.142Z,74.56
2022-11-01T17:06:36.189Z,74.99
2022-11-01T17:09:24.617Z,76.21
2022-11-01T17:12:11.347Z,76.58
2022-11-01T17:14:56.313Z,77.08
2022-11-01T17:17:43.973Z,77.37
2022-11-01T17:20:29.151Z,76.92
2022-11-01T17:23:18.143Z,77.82
2022-11-01T17:26:05.036Z,78.39
2022-11-01T17:28:52.464Z,78.63
2022-11-01T17:31:37.589Z,80.26
2022-11-01T17:34:24.001Z,82.34
2022-11-01T17:37:15.044Z,81.47
2022-11-01T17:40:00.802Z,82.31
2022-11-01T17:42:46.474Z,81.94
2022-11-01T17:45:31.574Z,82.14
2022-11-01T17:48:17.414Z,82.04
2022-11-01T17:51:02.454Z,82.22
2022-11-01T17:53:52.666Z,82.80
2022-11-01T17:56:37.907Z,82.29
2022-11-01T17:59:23.018Z,82.52
2022-11-01T18:02:09.966Z,84.21
2022-11-01T18:04:55.057Z,85.03
2022-11-01T18:07:47.477Z,84.74
2022-11-01T18:10:40.960Z,85.17
2022-11-01T18:13:31.017Z,85.54
2022-11-01T18:16:27.529Z,86.63
2022-11-01T18:19:34.474Z,86.31
2022-11-01T18:22:52.989Z,89.17
2022-11-01T18:25:44.893Z,89.23
2022-11-01T18:28:32.239Z,89.30
2022-11-01T18:31:25.975Z,89.39
2022-11-01T18:34:46.528Z,89.05
2022-11-01T18:37:42.226Z,89.84
2022-11-01T18:40:40.762Z,90.97
2022-11-01T18:43:39.290Z,91.98
2022-11-01T18:46:27.329Z,92.55
2022-11-01T18:49:12.750Z,93.51
2022-11-01T18:51:58.115Z,94.80
2022-11-01T18:54:56.301Z,94.08
2022-11-01T18:57:41.934Z,93.00
2022-11-01T19:00:27.431Z,93.79
2022-11-01T19:03:14.981Z,93.76
2022-11-01T19:06:20.864Z,95.57
2022-11-01T19:09:24.209Z,95.15
2022-11-01T19:12:15.904Z,95.88
2022-11-01T19:15:18.935Z,95.62
2022-11-01T19:18:15.493Z,96.06
2022-11-01T19:21:00.750Z,97.16
2022-11-01T19:23:49.337Z,96.27
2022-11-01T19:26:37.023Z,96.73
2022-11-01T19:29:25.917Z,96.99
2022-11-01T19:32:15.727Z,97.83
2022-11-01T19:35:00.706Z,98.71
2022-11-01T19:37:47.292Z,97.40
2022-11-01T19:40:34.725Z,97.85
2022-11-01T19:43:23.092Z,98.32
2022-11-01T19:46:13.022Z,96.81
2022-11-01T19:48:58.143Z,97.72
2022-11-01T19:51:43.093Z,95.47
2022-11-01T19:54:35.310Z,97.28
2022-11-01T19:57:34.452Z,96.95
2022-11-01T20:00:21.637Z,97.76
2022-11-01T20:03:23.666Z,97.72
2022-11-01T20:06:29.866Z,98.23
2022-11-01T20:09:25.703Z,98.39
2022-11-01T20:12:11.388Z,98.83
2022-11-01T20:14:56.313Z,97.83
2022-11-01T20:17:41.342Z,97.05
2022-11-01T20:20:26.455Z,96.46
2022-11-01T20:23:25.764Z,97.05
2022-11-01T20:26:12.146Z,96.99
2022-11-01T20:28:57.091Z,97.68
2022-11-01T20:31:42.164Z,97.91
2022-11-01T20:34:28.621Z,97.09
2022-11-01T20:37:29.401Z,96.79
2022-11-01T20:40:15.197Z,97.30
2022-11-01T20:43:00.586Z,96.94
2022-11-01T20:45:45.964Z,97.62
2022-11-01T20:48:31.105Z,98.60
2022-11-01T20:51:15.956Z,98.48
2022-11-01T20:54:01.075Z,100.00
2022-11-01T20:56:46.268Z,100.00
2022-11-01T20:59:31.430Z,100.00
2022-11-01T21:02:19.262Z,100.00
2022-11-01T21:05:30.276Z,100.00
2022-11-01T21:08:24.266Z,100.00
2022-11-01T21:11:19.647Z,100.00
2022-11-01T21:14:12.964Z,100.00
2022-11-01T21:16:58.949Z,99.84
2022-11-01T21:19:49.202Z,98.85
2022-11-01T21:22:34.075Z,96.93
2022-11-01T21:25:22.458Z,96.04
2022-11-01T21:28:29.842Z,94.57
2022-11-01T21:31:14.746Z,93.69
2022-11-01T21:34:09.873Z,91.92
2022-11-01T21:36:56.853Z,91.52
2022-11-01T21:39:41.657Z,91.84
2022-11-01T21:42:32.916Z,90.83
2022-11-01T21:45:32.010Z,90.79
2022-11-01T21:48:26.199Z,90.32
2022-11-01T21:51:11.257Z,90.15
2022-11-01T21:54:00.104Z,89.69
2022-11-01T21:56:48.925Z,89.91
2022-11-01T21:59:34.551Z,89.15
2022-11-01T22:02:19.576Z,88.90
2022-11-01T22:05:05.048Z,89.58
2022-11-01T22:07:50.240Z,88.38
2022-11-01T22:10:35.350Z,88.61
2022-11-01T22:13:20.227Z,89.54
2022-11-01T22:16:06.299Z,89.49
2022-11-01T22:18:51.418Z,88.67
2022-11-01T22:21:36.771Z,89.07
2022-11-01T22:24:21.637Z,89.20
2022-11-01T22:27:06.582Z,88.78
2022-11-01T22:29:51.658Z,89.84
2022-11-01T22:32:36.885Z,89.70
2022-11-01T22:35:21.700Z,89.72
2022-11-01T22:38:19.376Z,89.99
2022-11-01T22:41:22.596Z,89.06
2022-11-01T22:44:13.554Z,89.08
2022-11-01T22:47:00.995Z,89.15
2022-11-01T22:49:53.157Z,88.42
2022-11-01T22:52:41.813Z,88.36
2022-11-01T22:55:27.254Z,88.63
2022-11-01T22:58:31.176Z,89.08
2022-11-01T23:01:23.654Z,89.43
2022-11-01T23:04:20.760Z,88.65
2022-11-01T23:07:23.087Z,88.64
2022-11-01T23:10:30.690Z,88.57
2022-11-01T23:13:42.402Z,89.30
2022-11-01T23:16:34.680Z,89.05
2022-11-01T23:19:20.032Z,89.44
2022-11-01T23:22:14.239Z,88.61
2022-11-01T23:24:59.198Z,88.03
2022-11-01T23:27:44.844Z,88.28
2022-11-01T23:30:30.007Z,87.81
2022-11-01T23:33:17.601Z,86.97
2022-11-01T23:36:02.996Z,87.40
2022-11-01T23:38:54.766Z,87.04
2022-11-01T23:41:44.064Z,86.49
2022-11-01T23:44:36.538Z,86.42
2022-11-01T23:47:29.699Z,86.25
2022-11-01T23:50:22.118Z,85.97
2022-11-01T23:53:13.175Z,86.18
2022-11-01T23:55:59.902Z,86.13
2022-11-01T23:58:44.903Z,86.79
